createdAt,value
2022-09-12T00:01:25.524Z,11.80
2022-09-12T00:03:55.919Z,11.70
2022-09-12T00:06:29.946Z,11.60
2022-09-12T00:09:01.873Z,11.60
2022-09-12T00:11:29.295Z,11.60
2022-09-12T00:14:01.563Z,11.50
2022-09-12T00:16:32.648Z,11.60
2022-09-12T00:19:01.428Z,11.60
2022-09-12T00:21:28.989Z,11.50
2022-09-12T00:23:56.727Z,11.50
2022-09-12T00:26:24.079Z,11.50
2022-09-12T00:28:51.348Z,11.60
2022-09-12T00:31:24.152Z,11.50
2022-09-12T00:33:52.407Z,11.50
2022-09-12T00:36:23.220Z,11.50
2022-09-12T00:38:51.225Z,11.50
2022-09-12T00:41:26.976Z,11.40
2022-09-12T00:44:10.174Z,11.40
2022-09-12T00:47:14.486Z,11.30
2022-09-12T00:50:10.203Z,11.30
2022-09-12T00:52:43.601Z,11.30
2022-09-12T00:55:26.385Z,11.20
2022-09-12T00:58:08.932Z,11.30
2022-09-12T01:00:36.546Z,11.30
2022-09-12T01:03:16.867Z,11.20
2022-09-12T01:06:07.371Z,11.30
2022-09-12T01:08:37.514Z,11.30
2022-09-12T01:11:06.953Z,11.30
2022-09-12T01:13:36.712Z,11.20
2022-09-12T01:16:06.263Z,11.30
2022-09-12T01:18:56.152Z,11.30
2022-09-12T01:21:56.966Z,11.30
2022-09-12T01:25:07.236Z,11.30
2022-09-12T01:27:53.880Z,11.30
2022-09-12T01:30:54.059Z,11.30
2022-09-12T01:33:54.225Z,11.30
2022-09-12T01:36:52.943Z,11.20
2022-09-12T01:39:44.709Z,11.20
2022-09-12T01:42:36.912Z,11.20
2022-09-12T01:45:27.139Z,11.10
2022-09-12T01:48:35.929Z,11.20
2022-09-12T01:51:27.756Z,11.10
2022-09-12T01:54:26.616Z,11.10
2022-09-12T01:57:00.549Z,11.10
2022-09-12T01:59:51.411Z,11.00
2022-09-12T02:03:03.138Z,11.00
2022-09-12T02:05:41.089Z,10.80
2022-09-12T02:08:20.595Z,10.80
2022-09-12T02:11:02.071Z,10.90
2022-09-12T02:13:49.433Z,10.80
2022-09-12T02:16:34.777Z,10.90
2022-09-12T02:19:15.684Z,10.90
2022-09-12T02:21:59.604Z,10.90
2022-09-12T02:24:39.531Z,10.90
2022-09-12T02:27:23.950Z,10.90
2022-09-12T02:29:51.823Z,10.80
2022-09-12T02:32:30.328Z,10.80
2022-09-12T02:35:11.102Z,10.80
2022-09-12T02:38:11.532Z,10.80
2022-09-12T02:40:39.056Z,10.80
2022-09-12T02:43:07.285Z,10.80
2022-09-12T02:45:36.423Z,10.80
2022-09-12T02:48:13.319Z,10.80
2022-09-12T02:50:42.072Z,10.80
2022-09-12T02:53:11.411Z,10.80
2022-09-12T02:55:41.981Z,10.80
2022-09-12T02:58:25.760Z,10.80
2022-09-12T03:01:36.123Z,10.90
2022-09-12T03:04:43.723Z,10.90
2022-09-12T03:07:34.424Z,10.80
2022-09-12T03:10:40.476Z,10.90
2022-09-12T03:13:57.326Z,10.80
2022-09-12T03:16:44.217Z,10.80
2022-09-12T03:19:33.244Z,10.80
2022-09-12T03:22:19.121Z,10.90
2022-09-12T03:25:06.087Z,10.90
2022-09-12T03:27:45.431Z,10.80
2022-09-12T03:30:13.042Z,10.90
2022-09-12T03:32:45.676Z,10.80
2022-09-12T03:35:14.812Z,10.80
2022-09-12T03:37:42.127Z,10.80
2022-09-12T03:40:12.438Z,10.80
2022-09-12T03:42:39.679Z,10.80
2022-09-12T03:45:08.262Z,10.80
2022-09-12T03:47:35.736Z,10.80
2022-09-12T03:50:04.526Z,10.80
2022-09-12T03:52:31.572Z,10.80
2022-09-12T03:54:58.655Z,10.80
2022-09-12T03:57:25.684Z,10.80
2022-09-12T03:59:52.676Z,10.80
2022-09-12T04:02:20.001Z,10.70
2022-09-12T04:04:48.864Z,10.80
2022-09-12T04:07:17.472Z,10.70
2022-09-12T04:09:44.797Z,10.70
2022-09-12T04:12:12.680Z,10.70
2022-09-12T04:14:40.229Z,10.70
2022-09-12T04:17:07.452Z,10.70
2022-09-12T04:19:34.615Z,10.60
2022-09-12T04:22:01.706Z,10.60
2022-09-12T04:24:28.659Z,10.60
2022-09-12T04:26:55.886Z,10.60
2022-09-12T04:29:23.077Z,10.50
2022-09-12T04:31:50.396Z,10.60
2022-09-12T04:34:17.806Z,10.60
2022-09-12T04:36:44.834Z,10.50
2022-09-12T04:39:12.437Z,10.60
2022-09-12T04:41:41.966Z,10.60
2022-09-12T04:44:14.100Z,10.60
2022-09-12T04:46:46.025Z,10.60
2022-09-12T04:49:16.305Z,10.70
2022-09-12T04:51:43.580Z,10.80
2022-09-12T04:54:18.552Z,10.80
2022-09-12T04:56:49.003Z,10.90
2022-09-12T04:59:19.428Z,10.90
2022-09-12T05:01:47.457Z,11.00
2022-09-12T05:04:14.759Z,10.90
2022-09-12T05:06:43.250Z,11.00
2022-09-12T05:09:14.318Z,10.90
2022-09-12T05:12:03.751Z,11.00
2022-09-12T05:14:33.201Z,10.90
2022-09-12T05:17:01.855Z,10.90
2022-09-12T05:19:30.753Z,11.10
2022-09-12T05:21:59.131Z,11.10
2022-09-12T05:24:32.788Z,11.20
2022-09-12T05:27:00.123Z,11.40
2022-09-12T05:29:32.807Z,11.40
2022-09-12T05:32:06.699Z,11.60
2022-09-12T05:34:34.169Z,11.70
2022-09-12T05:37:04.086Z,11.70
2022-09-12T05:39:33.901Z,11.80
2022-09-12T05:42:04.491Z,12.00
2022-09-12T05:44:31.549Z,12.20
2022-09-12T05:46:58.663Z,12.40
2022-09-12T05:49:30.523Z,12.50
2022-09-12T05:51:57.837Z,12.60
2022-09-12T05:54:34.509Z,12.80
2022-09-12T05:57:06.369Z,13.00
2022-09-12T05:59:41.436Z,13.20
2022-09-12T06:02:15.050Z,13.20
2022-09-12T06:04:43.359Z,13.50
2022-09-12T06:07:13.749Z,13.50
2022-09-12T06:09:43.452Z,13.70
2022-09-12T06:12:23.923Z,13.90
2022-09-12T06:15:00.130Z,14.10
2022-09-12T06:17:29.882Z,14.30
2022-09-12T06:20:02.399Z,14.40
2022-09-12T06:22:31.907Z,14.60
2022-09-12T06:25:01.681Z,14.80
2022-09-12T06:27:29.294Z,14.90
2022-09-12T06:30:15.778Z,15.10
2022-09-12T06:32:45.293Z,15.30
2022-09-12T06:35:21.454Z,15.30
2022-09-12T06:37:53.862Z,15.50
2022-09-12T06:40:23.969Z,15.70
2022-09-12T06:42:53.114Z,15.80
2022-09-12T06:45:26.269Z,16.10
2022-09-12T06:47:58.908Z,16.20
2022-09-12T06:50:26.205Z,16.20
2022-09-12T06:52:55.885Z,16.40
2022-09-12T06:55:27.779Z,16.50
2022-09-12T06:57:58.211Z,16.80
2022-09-12T07:00:31.231Z,17.00
2022-09-12T07:03:01.247Z,17.10
2022-09-12T07:05:33.646Z,17.40
2022-09-12T07:08:11.102Z,17.60
2022-09-12T07:10:38.450Z,17.60
2022-09-12T07:13:06.949Z,17.60
2022-09-12T07:15:41.291Z,17.80
2022-09-12T07:18:17.022Z,17.90
2022-09-12T07:20:49.570Z,17.70
2022-09-12T07:23:19.631Z,18.00
2022-09-12T07:26:04.068Z,18.40
2022-09-12T07:28:36.802Z,18.80
2022-09-12T07:31:18.838Z,18.80
2022-09-12T07:33:54.415Z,18.90
2022-09-12T07:36:26.011Z,18.90
2022-09-12T07:39:03.157Z,19.20
2022-09-12T07:41:36.440Z,19.20
2022-09-12T07:44:06.791Z,19.10
2022-09-12T07:46:40.303Z,19.40
2022-09-12T07:49:15.229Z,19.70
2022-09-12T07:51:49.605Z,20.00
2022-09-12T07:54:24.478Z,20.00
2022-09-12T07:56:59.558Z,20.40
2022-09-12T07:59:52.639Z,20.50
2022-09-12T08:02:20.871Z,20.40
2022-09-12T08:04:49.279Z,20.40
2022-09-12T08:07:21.220Z,20.20
2022-09-12T08:09:50.624Z,20.30
2022-09-12T08:12:25.202Z,20.50
2022-09-12T08:14:52.480Z,20.50
2022-09-12T08:17:22.731Z,20.40
2022-09-12T08:19:51.055Z,20.50
2022-09-12T08:22:28.949Z,20.20
2022-09-12T08:24:58.810Z,20.00
2022-09-12T08:27:28.565Z,20.00
2022-09-12T08:29:58.297Z,20.40
2022-09-12T08:32:29.271Z,20.40
2022-09-12T08:34:58.857Z,20.70
2022-09-12T08:37:31.309Z,20.90
2022-09-12T08:39:58.653Z,21.00
2022-09-12T08:42:58.096Z,21.20
2022-09-12T08:45:57.500Z,21.40
2022-09-12T08:48:30.935Z,21.60
2022-09-12T08:51:05.406Z,21.80
2022-09-12T08:53:37.657Z,21.90
2022-09-12T08:56:11.959Z,21.80
2022-09-12T08:58:55.208Z,21.70
2022-09-12T09:01:45.806Z,21.80
2022-09-12T09:04:46.465Z,21.90
2022-09-12T09:07:50.140Z,22.00
2022-09-12T09:10:37.902Z,22.10
2022-09-12T09:13:10.442Z,22.20
2022-09-12T09:16:23.100Z,22.10
2022-09-12T09:18:56.038Z,22.10
2022-09-12T09:22:02.163Z,22.40
2022-09-12T09:24:40.020Z,22.50
2022-09-12T09:27:59.952Z,22.60
2022-09-12T09:30:31.072Z,22.80
2022-09-12T09:33:03.943Z,22.60
2022-09-12T09:36:12.815Z,22.70
2022-09-12T09:39:00.092Z,22.60
2022-09-12T09:41:51.477Z,22.60
2022-09-12T09:44:27.876Z,22.80
2022-09-12T09:47:00.670Z,22.60
2022-09-12T09:49:34.450Z,22.60
2022-09-12T09:52:08.324Z,22.30
2022-09-12T09:55:02.768Z,21.60
2022-09-12T09:57:39.106Z,21.50
2022-09-12T10:00:36.373Z,21.60
2022-09-12T10:03:15.611Z,21.60
2022-09-12T10:06:06.855Z,21.80
2022-09-12T10:08:39.428Z,21.90
2022-09-12T10:11:27.317Z,21.90
2022-09-12T10:14:01.400Z,22.10
2022-09-12T10:16:37.881Z,22.30
2022-09-12T10:19:07.788Z,22.00
2022-09-12T10:22:04.025Z,21.50
2022-09-12T10:24:48.905Z,21.40
2022-09-12T10:27:38.680Z,21.70
2022-09-12T10:30:14.738Z,21.90
2022-09-12T10:32:55.469Z,22.40
2022-09-12T10:35:50.929Z,22.70
2022-09-12T10:38:32.653Z,22.30
2022-09-12T10:41:05.777Z,21.90
2022-09-12T10:43:42.380Z,21.30
2022-09-12T10:46:18.216Z,21.20
2022-09-12T10:48:51.526Z,21.50
2022-09-12T10:51:24.646Z,21.80
2022-09-12T10:54:13.212Z,21.60
2022-09-12T10:57:02.958Z,21.40
2022-09-12T10:59:47.854Z,21.00
2022-09-12T11:02:20.415Z,21.10
2022-09-12T11:05:12.918Z,21.10
2022-09-12T11:07:49.348Z,21.10
2022-09-12T11:10:29.493Z,21.20
2022-09-12T11:13:05.075Z,20.90
2022-09-12T11:16:03.126Z,20.50
2022-09-12T11:18:54.908Z,20.20
2022-09-12T11:21:53.300Z,20.50
2022-09-12T11:24:40.500Z,20.80
2022-09-12T11:27:43.782Z,20.80
2022-09-12T11:30:17.730Z,20.80
2022-09-12T11:33:06.383Z,20.90
2022-09-12T11:35:41.000Z,21.00
2022-09-12T11:38:29.479Z,21.30
2022-09-12T11:41:06.579Z,21.30
2022-09-12T11:44:05.166Z,21.10
2022-09-12T11:46:37.507Z,21.10
2022-09-12T11:49:13.556Z,21.30
2022-09-12T11:52:19.953Z,21.30
2022-09-12T11:55:08.208Z,21.10
2022-09-12T11:57:50.407Z,21.00
2022-09-12T12:00:41.390Z,21.10
2022-09-12T12:03:37.221Z,21.10
2022-09-12T12:06:19.291Z,21.10
2022-09-12T12:08:49.132Z,21.20
2022-09-12T12:11:47.439Z,21.20
2022-09-12T12:14:42.606Z,21.40
2022-09-12T12:17:25.965Z,21.00
2022-09-12T12:20:06.503Z,20.90
2022-09-12T12:22:36.115Z,20.90
2022-09-12T12:25:28.874Z,21.00
2022-09-12T12:28:02.036Z,21.10
2022-09-12T12:30:33.435Z,21.20
2022-09-12T12:33:10.229Z,21.00
2022-09-12T12:35:41.661Z,21.00
2022-09-12T12:38:34.480Z,20.80
2022-09-12T12:41:39.694Z,21.00
2022-09-12T12:44:45.195Z,20.90
2022-09-12T12:47:22.590Z,21.10
2022-09-12T12:50:21.366Z,21.20
2022-09-12T12:53:16.416Z,21.30
2022-09-12T12:55:43.377Z,21.10
2022-09-12T12:58:34.620Z,21.20
2022-09-12T13:01:14.566Z,21.10
2022-09-12T13:04:04.291Z,21.10
2022-09-12T13:06:42.366Z,21.00
2022-09-12T13:09:27.239Z,21.10
2022-09-12T13:12:05.322Z,21.20
2022-09-12T13:14:51.909Z,21.30
2022-09-12T13:17:36.179Z,21.20
2022-09-12T13:20:27.887Z,21.20
2022-09-12T13:22:56.782Z,21.10
2022-09-12T13:25:35.218Z,21.00
2022-09-12T13:28:11.429Z,20.90
2022-09-12T13:30:43.281Z,20.80
2022-09-12T13:33:24.830Z,20.80
2022-09-12T13:36:45.237Z,21.10
2022-09-12T13:39:40.438Z,21.10
2022-09-12T13:42:35.611Z,21.10
2022-09-12T13:45:27.537Z,20.90
2022-09-12T13:48:00.906Z,20.60
2022-09-12T13:50:54.571Z,20.50
2022-09-12T13:53:27.745Z,20.50
2022-09-12T13:56:00.374Z,20.50
2022-09-12T13:58:35.074Z,20.40
2022-09-12T14:01:02.160Z,20.50
2022-09-12T14:03:55.670Z,20.50
2022-09-12T14:06:27.689Z,20.30
2022-09-12T14:09:01.436Z,20.30
2022-09-12T14:11:31.012Z,20.40
2022-09-12T14:14:06.888Z,20.50
2022-09-12T14:16:40.576Z,20.50
2022-09-12T14:19:12.324Z,20.60
2022-09-12T14:21:39.630Z,20.70
2022-09-12T14:24:10.102Z,20.70
2022-09-12T14:26:40.584Z,20.60
2022-09-12T14:29:09.244Z,20.70
2022-09-12T14:31:39.399Z,20.70
2022-09-12T14:34:15.048Z,20.70
2022-09-12T14:36:57.190Z,20.70
2022-09-12T14:39:45.649Z,20.70
2022-09-12T14:42:18.319Z,20.70
2022-09-12T14:45:14.236Z,20.70
2022-09-12T14:47:44.571Z,20.60
2022-09-12T14:50:23.702Z,20.70
2022-09-12T14:53:17.112Z,20.80
2022-09-12T14:55:59.434Z,20.70
2022-09-12T14:58:28.624Z,20.70
2022-09-12T15:01:22.438Z,20.60
2022-09-12T15:03:54.044Z,20.50
2022-09-12T15:06:30.532Z,20.50
2022-09-12T15:09:03.368Z,20.50
2022-09-12T15:11:30.498Z,20.50
2022-09-12T15:13:57.672Z,20.30
2022-09-12T15:16:24.798Z,20.30
2022-09-12T15:18:51.794Z,20.30
2022-09-12T15:21:21.274Z,20.40
2022-09-12T15:23:53.943Z,20.30
2022-09-12T15:26:30.547Z,20.30
2022-09-12T15:28:58.079Z,20.40
2022-09-12T15:31:30.838Z,20.40
2022-09-12T15:34:00.888Z,20.30
2022-09-12T15:36:31.918Z,20.40
2022-09-12T15:38:58.924Z,20.40
2022-09-12T15:41:34.581Z,20.50
2022-09-12T15:44:04.557Z,20.60
2022-09-12T15:46:31.717Z,20.70
2022-09-12T15:48:58.824Z,20.60
2022-09-12T15:51:26.077Z,20.60
2022-09-12T15:53:53.098Z,20.60
2022-09-12T15:56:22.414Z,20.60
2022-09-12T15:59:05.436Z,20.60
2022-09-12T16:01:32.614Z,20.60
2022-09-12T16:04:00.016Z,20.50
2022-09-12T16:06:32.507Z,20.40
2022-09-12T16:09:03.395Z,20.40
2022-09-12T16:11:30.559Z,20.30
2022-09-12T16:13:58.133Z,20.30
2022-09-12T16:16:25.314Z,20.10
2022-09-12T16:18:52.629Z,20.10
2022-09-12T16:21:19.741Z,20.10
2022-09-12T16:23:48.139Z,20.10
2022-09-12T16:26:16.830Z,20.10
2022-09-12T16:28:44.695Z,20.10
2022-09-12T16:31:14.456Z,20.00
2022-09-12T16:33:41.758Z,19.90
2022-09-12T16:36:15.445Z,19.90
2022-09-12T16:38:51.713Z,19.90
2022-09-12T16:41:22.553Z,19.80
2022-09-12T16:43:51.189Z,19.70
2022-09-12T16:46:22.318Z,19.50
2022-09-12T16:48:54.145Z,19.50
2022-09-12T16:51:24.958Z,19.50
2022-09-12T16:53:52.714Z,19.40
2022-09-12T16:56:19.996Z,19.40
2022-09-12T16:58:47.807Z,19.30
2022-09-12T17:01:19.593Z,19.20
2022-09-12T17:03:47.304Z,19.20
2022-09-12T17:06:18.370Z,19.30
2022-09-12T17:08:49.978Z,19.10
2022-09-12T17:11:25.204Z,19.20
2022-09-12T17:14:11.372Z,19.10
2022-09-12T17:16:45.915Z,19.10
2022-09-12T17:19:21.708Z,19.00
2022-09-12T17:21:50.189Z,18.90
2022-09-12T17:24:18.918Z,18.80
2022-09-12T17:26:47.033Z,18.80
2022-09-12T17:29:15.820Z,18.70
2022-09-12T17:31:45.176Z,18.60
2022-09-12T17:34:14.738Z,18.50
2022-09-12T17:36:46.201Z,18.40
2022-09-12T17:39:14.802Z,18.40
2022-09-12T17:41:43.209Z,18.30
2022-09-12T17:44:15.242Z,18.10
2022-09-12T17:46:43.385Z,18.10
2022-09-12T17:49:16.837Z,18.00
2022-09-12T17:51:45.168Z,17.90
2022-09-12T17:54:16.209Z,17.90
2022-09-12T17:56:46.698Z,17.80
2022-09-12T17:59:23.027Z,17.70
2022-09-12T18:02:09.098Z,17.60
2022-09-12T18:04:36.679Z,17.60
2022-09-12T18:07:04.403Z,17.50
2022-09-12T18:09:31.817Z,17.40
2022-09-12T18:11:59.393Z,17.40
2022-09-12T18:14:28.454Z,17.20
2022-09-12T18:16:57.317Z,17.00
2022-09-12T18:19:25.269Z,16.90
2022-09-12T18:21:52.663Z,16.80
2022-09-12T18:24:20.119Z,16.70
2022-09-12T18:26:47.637Z,16.60
2022-09-12T18:29:20.087Z,16.40
2022-09-12T18:31:47.728Z,16.30
2022-09-12T18:34:18.245Z,16.00
2022-09-12T18:36:50.001Z,15.80
2022-09-12T18:39:18.330Z,15.80
2022-09-12T18:41:45.588Z,15.80
2022-09-12T18:44:13.748Z,15.80
2022-09-12T18:46:41.316Z,15.70
2022-09-12T18:49:10.761Z,15.70
2022-09-12T18:51:40.214Z,15.60
2022-09-12T18:54:13.434Z,15.50
2022-09-12T18:56:43.547Z,15.40
2022-09-12T18:59:14.347Z,15.20
2022-09-12T19:01:43.033Z,15.10
2022-09-12T19:04:16.889Z,15.10
2022-09-12T19:06:48.223Z,15.00
2022-09-12T19:09:21.129Z,14.90
2022-09-12T19:11:49.793Z,14.80
2022-09-12T19:14:26.064Z,14.70
2022-09-12T19:16:54.114Z,14.60
2022-09-12T19:19:21.741Z,14.70
2022-09-12T19:21:49.137Z,14.80
2022-09-12T19:24:17.340Z,14.70
2022-09-12T19:26:45.169Z,14.60
2022-09-12T19:29:16.645Z,14.50
2022-09-12T19:31:45.637Z,14.40
2022-09-12T19:34:13.781Z,14.30
2022-09-12T19:36:46.739Z,14.20
2022-09-12T19:39:16.706Z,14.10
2022-09-12T19:41:44.643Z,13.90
2022-09-12T19:44:12.177Z,13.80
2022-09-12T19:46:39.566Z,13.90
2022-09-12T19:49:06.781Z,13.90
2022-09-12T19:51:34.286Z,14.00
2022-09-12T19:54:01.403Z,14.00
2022-09-12T19:56:28.452Z,14.20
2022-09-12T19:58:56.833Z,14.20
2022-09-12T20:01:30.395Z,14.10
2022-09-12T20:03:59.022Z,14.00
2022-09-12T20:06:27.523Z,14.00
2022-09-12T20:08:55.889Z,14.00
2022-09-12T20:11:24.135Z,14.00
2022-09-12T20:13:51.633Z,14.10
2022-09-12T20:16:29.175Z,13.90
2022-09-12T20:19:00.777Z,13.70
2022-09-12T20:21:35.926Z,13.70
2022-09-12T20:24:10.942Z,13.80
2022-09-12T20:37:40.556Z,13.90
2022-09-12T20:40:08.806Z,14.40
2022-09-12T20:42:36.775Z,14.30
2022-09-12T20:45:07.278Z,14.10
2022-09-12T20:47:34.308Z,13.90
2022-09-12T20:50:01.288Z,13.70
2022-09-12T20:52:28.291Z,13.60
2022-09-12T20:54:55.326Z,13.50
2022-09-12T20:57:23.251Z,13.40
2022-09-12T20:59:50.563Z,13.20
2022-09-12T21:02:17.825Z,12.90
2022-09-12T21:04:45.072Z,12.90
2022-09-12T21:07:12.119Z,12.80
2022-09-12T21:09:39.777Z,12.70
2022-09-12T21:12:06.984Z,12.80
2022-09-12T21:14:34.039Z,12.70
2022-09-12T21:17:01.107Z,12.80
2022-09-12T21:19:28.187Z,12.80
2022-09-12T21:21:55.186Z,12.70
2022-09-12T21:24:22.183Z,12.60
2022-09-12T21:26:49.357Z,12.50
2022-09-12T21:29:16.426Z,12.40
2022-09-12T21:31:44.127Z,12.30
2022-09-12T21:34:11.254Z,12.30
2022-09-12T21:36:38.334Z,12.30
2022-09-12T21:39:05.365Z,12.20
2022-09-12T21:41:32.343Z,12.10
2022-09-12T21:43:59.386Z,12.00
2022-09-12T21:46:26.537Z,12.00
2022-09-12T21:48:53.538Z,12.00
2022-09-12T21:51:20.572Z,12.00
2022-09-12T21:53:47.639Z,12.00
2022-09-12T21:56:14.723Z,11.90
2022-09-12T21:58:41.932Z,11.80
2022-09-12T22:01:12.648Z,11.80
2022-09-12T22:03:39.757Z,11.70
2022-09-12T22:06:07.649Z,11.60
2022-09-12T22:08:37.841Z,11.60
2022-09-12T22:11:10.884Z,11.60
2022-09-12T22:13:42.028Z,11.50
2022-09-12T22:16:10.131Z,11.50
2022-09-12T22:18:38.131Z,11.40
2022-09-12T22:21:12.819Z,11.30
2022-09-12T22:23:58.799Z,11.30
2022-09-12T22:26:28.699Z,11.20
2022-09-12T22:28:56.017Z,11.30
2022-09-12T22:31:23.637Z,11.30
2022-09-12T22:33:51.481Z,11.30
2022-09-12T22:36:18.480Z,11.40
2022-09-12T22:38:45.506Z,11.50
2022-09-12T22:41:13.272Z,11.50
2022-09-12T22:43:40.992Z,11.50
2022-09-12T22:46:12.640Z,11.50
2022-09-12T22:48:40.688Z,11.50
2022-09-12T22:51:08.486Z,11.40
2022-09-12T22:53:36.590Z,11.30
2022-09-12T22:56:05.516Z,11.30
2022-09-12T22:58:36.721Z,11.20
2022-09-12T23:01:06.533Z,11.10
2022-09-12T23:03:34.168Z,11.10
2022-09-12T23:06:01.193Z,11.20
2022-09-12T23:08:29.737Z,11.10
2022-09-12T23:11:19.314Z,11.20
2022-09-12T23:13:49.230Z,11.10
2022-09-12T23:16:23.301Z,11.10
2022-09-12T23:18:50.836Z,11.10
2022-09-12T23:21:21.348Z,11.20
2022-09-12T23:23:49.193Z,11.30
2022-09-12T23:26:23.372Z,11.30
2022-09-12T23:29:00.083Z,11.30
2022-09-12T23:31:30.379Z,11.30
2022-09-12T23:34:02.005Z,11.30
2022-09-12T23:36:29.726Z,11.20
2022-09-12T23:38:57.303Z,11.20
2022-09-12T23:41:25.354Z,11.10
2022-09-12T23:43:52.557Z,11.20
2022-09-12T23:46:20.664Z,11.20
2022-09-12T23:48:48.595Z,11.20
2022-09-12T23:51:16.489Z,11.10
2022-09-12T23:53:43.630Z,11.10
2022-09-12T23:56:10.934Z,11.10
2022-09-12T23:58:38.039Z,11.10
